Nrp Polar — CTEJ — position and weather

sailwx.info

Track history (hours):
 
Tides and Currents Weather Stations Pressure Air Temp Water Temp Dewpoint Dewpoint Depression Visibility Wind Speed Wind Dir Waves Ship Positions

Nrp Polar

Last reported at 2017-Feb-23 16:29 UTC. Time now 2017-Feb-24 03:57 UTC.
Position N 38°40' W 009°09'.

; draft 3 m.

Type: Sailing vessel. MMSI: 263142000.

Date/timePositionNaut miles runAvg speedWind from/ knotsBaromVisibWave heightAir tempDewpointWater temp
2017-Feb-23 16:29N 38°40' W 009°09'0 0.0
2017-Feb-23 15:31N 38°40' W 009°09'  
2017-Feb-18 14:33N 38°40' W 009°09'1 1.4
2017-Feb-18 13:33N 38°41' W 009°11'7 6.6
2017-Feb-18 12:33N 38°40' W 009°19'6 6.1
2017-Feb-18 11:34N 38°36' W 009°25'4 4.2
2017-Feb-18 10:33N 38°40' W 009°23'1 1.2
2017-Feb-18 09:33N 38°41' W 009°23'1 0.6
2017-Feb-18 08:33N 38°41' W 009°24'1 0.9
2017-Feb-18 07:33N 38°42' W 009°25'0 0.0
2017-Feb-17 17:33N 38°42' W 009°25'3 3.4
2017-Feb-17 16:33N 38°38' W 009°24'6 5.8
2017-Feb-17 15:33N 38°41' W 009°18'7 7.2
2017-Feb-17 14:32N 38°41' W 009°08'1 1.2
2017-Feb-17 13:33N 38°40' W 009°09'0 0.0
2017-Feb-17 12:27N 38°40' W 009°09'0 0.0
2017-Feb-17 11:29N 38°40' W 009°09'0 0.0
2017-Feb-16 15:33N 38°40' W 009°09'0 0.0
2017-Feb-16 08:04N 38°40' W 009°09'0 0.0
2017-Feb-14 11:17N 38°40' W 009°09'  
Track history (hours):
 
Tides and Currents Weather Stations Pressure Air Temp Water Temp Dewpoint Dewpoint Depression Visibility Wind Speed Wind Dir Waves Ship Positions

Nrp Polar

Last reported at 2017-Feb-23 16:29 UTC. Time now 2017-Feb-24 03:57 UTC.
Position N 38°40' W 009°09'.

; draft 3 m.

Type: Sailing vessel. MMSI: 263142000.

Date/timePositionNaut miles runAvg speedWind from/ knotsBaromVisibWave heightAir tempDewpointWater temp
2017-Feb-23 16:29N 38°40' W 009°09'0 0.0
2017-Feb-23 15:31N 38°40' W 009°09'  
2017-Feb-18 14:33N 38°40' W 009°09'1 1.4
2017-Feb-18 13:33N 38°41' W 009°11'7 6.6
2017-Feb-18 12:33N 38°40' W 009°19'6 6.1
2017-Feb-18 11:34N 38°36' W 009°25'4 4.2
2017-Feb-18 10:33N 38°40' W 009°23'1 1.2
2017-Feb-18 09:33N 38°41' W 009°23'1 0.6
2017-Feb-18 08:33N 38°41' W 009°24'1 0.9
2017-Feb-18 07:33N 38°42' W 009°25'0 0.0
2017-Feb-17 17:33N 38°42' W 009°25'3 3.4
2017-Feb-17 16:33N 38°38' W 009°24'6 5.8
2017-Feb-17 15:33N 38°41' W 009°18'7 7.2
2017-Feb-17 14:32N 38°41' W 009°08'1 1.2
2017-Feb-17 13:33N 38°40' W 009°09'0 0.0
2017-Feb-17 12:27N 38°40' W 009°09'0 0.0
2017-Feb-17 11:29N 38°40' W 009°09'0 0.0
2017-Feb-16 15:33N 38°40' W 009°09'0 0.0
2017-Feb-16 08:04N 38°40' W 009°09'0 0.0
2017-Feb-14 11:17N 38°40' W 009°09'  

Dump ship's entire track history